Accueil
METAR-TAF:

METAR-TAF

Aéroports :

Aéroport de Maastricht-Aix-la-Chapelle

Maastricht Aix-la-Chapelle, Pays-Bas

latitude: 50-55N, longitude: 005-47E, altitude: 114 m

Observation

Le bulletin a été fait il y a 17 minutes, à 17:55 UTC
Vent 7 kt de ouest/sud-ouest, variant entre sud/sud-ouest et nord-ouest
Température 21°C
Humidité 73%
Pression 1019 hPa
Visibilité 10 km ou plus

METAR: EHBK 151755Z AUTO 24007KT 200V310 9999 NCD 21/16 Q1019 NOSIG

Heure: 20:12 (18:12 UTC)

Prévision

Le bulletin a été fait il y a 29 minutes, à 17:43 UTC
Prévision valable du 15 à 18 UTC au 16 à 24 UTC
Vent 5 kt de ouest/sud-ouest
Visibilité 10 km ou plus
Nuages fragmentés à une hauteur de 3500 ft

TAF: EHBK 151743Z 1518/1624 24005KT 9999 BKN035

Observations et prévisions météorologiques de plus de 4000 aéroports (messages METAR et TAF).

Les stations disponibles sont représentées par des disques jaunes et rouges sur la carte.

Passer la souris dessus pour voir le nom de la station.

Cliquer dessus pour voir les observations et prévisions météorologiques.

Pour changer de carte: cliquez sur les boutons verts avec une croix noire pour zoomer, sur le bouton vert avec un tiret pour effectuer un zoom arrière, ou sur les flèches vertes pour les cartes adjacentes.


METAR-TAF: